Time;durP1;ratioP1;P1;durP2;ratioP2;P2;SDS_P1;SDS_P2;PMS_P1;PMS_P2;Temp;Humidity;BMP_temperature;BMP_pressure;BME280_temperature;BME280_humidity;BME280_pressure;Samples;Min_cycle;Max_cycle;Signal;HPM_P1;HPM_P2
2023/03/05 00:00:04;;;;;;;7.80;1.50;;;;;;;;;;5117717;28;20462;-72
2023/03/05 00:02:35;;;;;;;8.20;2.10;;;;;;;;;;5118836;28;20470;-71
2023/03/05 00:05:04;;;;;;;4.20;1.63;;;;;;;;;;5118138;28;20529;-71
2023/03/05 00:07:32;;;;;;;15.23;2.43;;;;;;;;;;5118418;28;20432;-71
2023/03/05 00:10:01;;;;;;;2.73;1.10;;;;;;;;;;5118007;28;20454;-71
2023/03/05 00:12:31;;;;;;;4.37;1.40;;;;;;;;;;5117571;28;20503;-71
2023/03/05 00:15:05;;;;;;;4.80;1.20;;;;;;;;;;5117151;28;20792;-71
2023/03/05 00:17:36;;;;;;;7.53;1.73;;;;;;;;;;5120316;28;20479;-71
2023/03/05 00:20:10;;;;;;;11.10;1.43;;;;;;;;;;5121702;28;20517;-71
2023/03/05 00:22:43;;;;;;;8.10;1.70;;;;;;;;;;5122107;28;20509;-71
2023/03/05 00:25:15;;;;;;;6.37;1.77;;;;;;;;;;5120754;28;20461;-71
2023/03/05 00:27:44;;;;;;;5.10;1.73;;;;;;;;;;5115572;27;20447;-71
2023/03/05 00:30:14;;;;;;;4.77;1.00;;;;;;;;;;5121270;28;20470;-71
2023/03/05 00:32:42;;;;;;;5.47;1.63;;;;;;;;;;5121375;28;20776;-72
2023/03/05 00:35:10;;;;;;;7.00;1.73;;;;;;;;;;5121428;28;20519;-72
2023/03/05 00:37:38;;;;;;;4.93;1.80;;;;;;;;;;5121155;28;20439;-72
2023/03/05 00:40:06;;;;;;;10.13;1.57;;;;;;;;;;5121294;28;20741;-72
2023/03/05 00:42:37;;;;;;;12.33;1.50;;;;;;;;;;5121152;28;20478;-72
2023/03/05 00:45:05;;;;;;;2.93;1.03;;;;;;;;;;5120392;28;20482;-71
2023/03/05 00:47:35;;;;;;;3.40;1.10;;;;;;;;;;5124166;28;20453;-71
2023/03/05 00:50:03;;;;;;;12.53;2.07;;;;;;;;;;5120724;28;20435;-70
2023/03/05 00:52:38;;;;;;;2.83;0.90;;;;;;;;;;5122199;28;20447;-71
2023/03/05 00:55:06;;;;;;;6.30;1.40;;;;;;;;;;5120788;28;20956;-70
2023/03/05 00:57:36;;;;;;;4.80;1.17;;;;;;;;;;5120623;28;20466;-72
2023/03/05 01:00:08;;;;;;;9.73;1.60;;;;;;;;;;5124402;28;20588;-72
2023/03/05 01:02:38;;;;;;;3.93;1.00;;;;;;;;;;5120172;28;20597;-71
2023/03/05 01:05:08;;;;;;;3.90;1.23;;;;;;;;;;5124194;28;20446;-71
2023/03/05 01:07:38;;;;;;;3.50;1.13;;;;;;;;;;5119229;28;20479;-71
2023/03/05 01:10:17;;;;;;;5.03;1.17;;;;;;;;;;5118304;28;20450;-70
2023/03/05 01:12:47;;;;;;;5.63;0.90;;;;;;;;;;5123050;28;20443;-72
2023/03/05 01:15:15;;;;;;;3.63;1.30;;;;;;;;;;5120968;28;20859;-72
2023/03/05 01:17:44;;;;;;;10.93;1.33;;;;;;;;;;5121047;28;20877;-71
2023/03/05 01:20:15;;;;;;;15.03;1.80;;;;;;;;;;5121838;28;20466;-71
2023/03/05 01:22:55;;;;;;;4.50;1.10;;;;;;;;;;5121759;28;20928;-71
2023/03/05 01:25:23;;;;;;;3.63;1.30;;;;;;;;;;5100584;28;20477;-72
2023/03/05 01:27:52;;;;;;;5.87;0.90;;;;;;;;;;5103138;28;20466;-73
2023/03/05 01:30:26;;;;;;;4.90;1.40;;;;;;;;;;5100914;28;20851;-72
2023/03/05 01:32:56;;;;;;;3.73;1.00;;;;;;;;;;5100320;28;20710;-72
2023/03/05 01:35:25;;;;;;;3.20;1.13;;;;;;;;;;5109217;28;20889;-71
2023/03/05 01:37:53;;;;;;;3.63;0.83;;;;;;;;;;5121487;28;20478;-70
2023/03/05 01:40:22;;;;;;;6.43;1.20;;;;;;;;;;5100700;28;20459;-71
2023/03/05 01:42:50;;;;;;;2.37;1.00;;;;;;;;;;5101728;28;20768;-72
2023/03/05 01:45:19;;;;;;;3.23;0.80;;;;;;;;;;5099663;28;20459;-72
2023/03/05 01:47:51;;;;;;;4.60;1.20;;;;;;;;;;5100156;28;20444;-72
2023/03/05 01:50:22;;;;;;;7.67;1.70;;;;;;;;;;5100508;28;20460;-71
2023/03/05 01:52:51;;;;;;;4.37;1.50;;;;;;;;;;5100455;28;20840;-71
2023/03/05 01:55:21;;;;;;;8.57;1.30;;;;;;;;;;5099504;28;20473;-71
2023/03/05 01:57:54;;;;;;;4.17;1.00;;;;;;;;;;5102451;28;20885;-71
2023/03/05 02:00:26;;;;;;;7.33;1.30;;;;;;;;;;5099292;28;20443;-71
2023/03/05 02:02:58;;;;;;;5.27;1.57;;;;;;;;;;5100872;28;20487;-72
2023/03/05 02:05:35;;;;;;;4.50;1.33;;;;;;;;;;5099982;28;20447;-72
2023/03/05 02:08:03;;;;;;;2.87;0.90;;;;;;;;;;5100484;28;20463;-71
2023/03/05 02:10:35;;;;;;;5.70;1.10;;;;;;;;;;5100534;28;20456;-72
2023/03/05 02:13:06;;;;;;;3.40;1.00;;;;;;;;;;5099550;28;20455;-72
2023/03/05 02:15:34;;;;;;;5.57;1.33;;;;;;;;;;5101208;28;20764;-72
2023/03/05 02:18:06;;;;;;;3.60;1.30;;;;;;;;;;5098956;28;20470;-72
2023/03/05 02:20:45;;;;;;;3.90;1.00;;;;;;;;;;5100461;28;20448;-72
2023/03/05 02:23:15;;;;;;;10.60;1.17;;;;;;;;;;5099014;28;20552;-72
2023/03/05 02:25:44;;;;;;;5.23;0.90;;;;;;;;;;5098697;28;20452;-72
2023/03/05 02:28:16;;;;;;;3.83;1.03;;;;;;;;;;5099013;28;20526;-72
2023/03/05 02:30:44;;;;;;;3.43;0.83;;;;;;;;;;5099464;28;20455;-71
2023/03/05 02:33:14;;;;;;;8.33;0.97;;;;;;;;;;5105877;28;20851;-71
2023/03/05 02:35:42;;;;;;;4.80;1.50;;;;;;;;;;5118634;28;20447;-71
2023/03/05 02:38:17;;;;;;;1.63;0.70;;;;;;;;;;5119922;28;20459;-71
2023/03/05 02:40:45;;;;;;;10.70;1.03;;;;;;;;;;5118226;28;20858;-71
2023/03/05 02:43:13;;;;;;;3.93;0.93;;;;;;;;;;5102000;28;20475;-72
2023/03/05 02:45:44;;;;;;;3.93;0.80;;;;;;;;;;5098723;28;20826;-72
2023/03/05 02:48:11;;;;;;;2.70;1.30;;;;;;;;;;5098143;28;20444;-73
2023/03/05 02:50:39;;;;;;;6.13;1.20;;;;;;;;;;5098683;28;20875;-72
2023/03/05 02:53:07;;;;;;;4.50;0.90;;;;;;;;;;5097889;28;20931;-72
2023/03/05 02:55:36;;;;;;;5.97;1.07;;;;;;;;;;5096928;28;20550;-72
2023/03/05 02:58:04;;;;;;;2.93;1.00;;;;;;;;;;5097977;28;20868;-72
2023/03/05 03:00:32;;;;;;;5.40;1.00;;;;;;;;;;5097728;28;20462;-71
2023/03/05 03:03:00;;;;;;;4.77;2.00;;;;;;;;;;5101016;28;20480;-72
2023/03/05 03:05:28;;;;;;;11.10;1.40;;;;;;;;;;5099429;28;20544;-73
2023/03/05 03:08:04;;;;;;;7.00;1.40;;;;;;;;;;5101501;28;20511;-72
2023/03/05 03:10:32;;;;;;;5.97;1.10;;;;;;;;;;5098292;28;20550;-72
2023/03/05 03:13:01;;;;;;;2.70;1.27;;;;;;;;;;5099938;28;20860;-71
2023/03/05 03:15:29;;;;;;;1.90;0.80;;;;;;;;;;5100368;28;20459;-71
2023/03/05 03:17:57;;;;;;;4.07;0.90;;;;;;;;;;5099942;28;20546;-71
2023/03/05 03:20:25;;;;;;;4.03;1.87;;;;;;;;;;5101666;28;20474;-71
2023/03/05 03:22:54;;;;;;;6.47;1.90;;;;;;;;;;5100345;28;20487;-71
2023/03/05 03:25:25;;;;;;;4.40;0.90;;;;;;;;;;5101101;28;20455;-72
2023/03/05 03:27:59;;;;;;;10.40;1.43;;;;;;;;;;5099427;28;20459;-70
2023/03/05 03:30:28;;;;;;;2.63;1.20;;;;;;;;;;5100729;28;20546;-72
2023/03/05 03:32:56;;;;;;;6.07;1.33;;;;;;;;;;5101441;28;20722;-71
2023/03/05 03:35:24;;;;;;;8.67;1.27;;;;;;;;;;5099429;28;20490;-72
2023/03/05 03:37:52;;;;;;;2.10;1.10;;;;;;;;;;5102144;28;20454;-72
2023/03/05 03:40:23;;;;;;;3.97;1.20;;;;;;;;;;5100236;28;20463;-71
2023/03/05 03:42:52;;;;;;;4.27;1.43;;;;;;;;;;5102209;28;20487;-71
2023/03/05 03:45:20;;;;;;;8.67;2.07;;;;;;;;;;5116636;28;20461;-71
2023/03/05 03:47:51;;;;;;;2.60;1.10;;;;;;;;;;5118960;28;20451;-71
2023/03/05 03:50:20;;;;;;;5.97;1.70;;;;;;;;;;5119869;28;20866;-71
2023/03/05 03:52:48;;;;;;;5.77;1.60;;;;;;;;;;5122352;28;20830;-71
2023/03/05 03:55:15;;;;;;;8.37;2.30;;;;;;;;;;5123878;28;20474;-71
2023/03/05 03:57:43;;;;;;;2.87;1.33;;;;;;;;;;5123234;28;20447;-71
2023/03/05 04:00:11;;;;;;;12.07;2.60;;;;;;;;;;5123863;28;20450;-71
2023/03/05 04:02:39;;;;;;;5.63;1.47;;;;;;;;;;5121946;28;20489;-71
2023/03/05 04:05:09;;;;;;;5.93;1.67;;;;;;;;;;5121854;28;20449;-71
2023/03/05 04:07:37;;;;;;;5.00;1.63;;;;;;;;;;5122634;28;20446;-71
2023/03/05 04:10:05;;;;;;;8.03;1.97;;;;;;;;;;5121542;28;20518;-72
2023/03/05 04:12:33;;;;;;;6.93;2.23;;;;;;;;;;5123144;28;20441;-71
2023/03/05 04:15:00;;;;;;;9.70;1.90;;;;;;;;;;5121996;28;20858;-71
2023/03/05 04:17:28;;;;;;;5.63;1.93;;;;;;;;;;5123489;28;20878;-71
2023/03/05 04:19:56;;;;;;;7.43;2.30;;;;;;;;;;5123033;28;20461;-71
2023/03/05 04:22:25;;;;;;;5.93;2.23;;;;;;;;;;5124176;28;20442;-71
2023/03/05 04:24:53;;;;;;;8.10;2.07;;;;;;;;;;5123335;28;20815;-71
2023/03/05 04:27:24;;;;;;;10.03;3.27;;;;;;;;;;5122515;28;20829;-71
2023/03/05 04:29:52;;;;;;;10.27;1.57;;;;;;;;;;5102661;28;20527;-71
2023/03/05 04:32:21;;;;;;;7.00;1.93;;;;;;;;;;5102141;28;20546;-71
2023/03/05 04:34:49;;;;;;;9.20;2.03;;;;;;;;;;5103624;28;20456;-71
2023/03/05 04:37:17;;;;;;;10.57;2.10;;;;;;;;;;5101590;28;20447;-71
2023/03/05 04:39:47;;;;;;;9.23;2.10;;;;;;;;;;5103446;28;20447;-71
2023/03/05 04:42:15;;;;;;;3.77;1.30;;;;;;;;;;5102970;28;20463;-70
2023/03/05 04:44:42;;;;;;;5.33;1.57;;;;;;;;;;5102893;28;20539;-72
2023/03/05 04:47:10;;;;;;;10.00;2.00;;;;;;;;;;5102452;28;20986;-70
2023/03/05 04:49:38;;;;;;;6.23;1.80;;;;;;;;;;5102335;28;20463;-72
2023/03/05 04:52:06;;;;;;;2.23;1.10;;;;;;;;;;5102880;28;20874;-71
2023/03/05 04:54:35;;;;;;;2.70;1.33;;;;;;;;;;5100699;28;20447;-70
2023/03/05 04:57:04;;;;;;;5.40;1.80;;;;;;;;;;5103001;28;20704;-70
2023/03/05 04:59:32;;;;;;;2.43;1.13;;;;;;;;;;5100766;28;20894;-72
2023/03/05 05:02:01;;;;;;;2.17;1.40;;;;;;;;;;5103215;28;20483;-73
2023/03/05 05:04:29;;;;;;;5.20;1.97;;;;;;;;;;5100898;28;20483;-70
2023/03/05 05:06:56;;;;;;;6.30;2.73;;;;;;;;;;5119089;28;20459;-72
2023/03/05 05:09:25;;;;;;;3.70;1.67;;;;;;;;;;5119647;28;20446;-72
2023/03/05 05:11:52;;;;;;;4.77;1.87;;;;;;;;;;5120760;28;20469;-71
2023/03/05 05:14:21;;;;;;;3.30;1.30;;;;;;;;;;5122139;28;20858;-70
2023/03/05 05:16:53;;;;;;;2.93;1.50;;;;;;;;;;5121549;28;20727;-71
2023/03/05 05:19:20;;;;;;;4.67;1.73;;;;;;;;;;5122716;28;20443;-71
2023/03/05 05:21:55;;;;;;;4.93;1.90;;;;;;;;;;5103985;28;20474;-71
2023/03/05 05:24:23;;;;;;;1.80;1.10;;;;;;;;;;5121468;28;20573;-72
2023/03/05 05:26:51;;;;;;;4.87;1.83;;;;;;;;;;5112743;28;20434;-71
2023/03/05 05:29:18;;;;;;;5.00;1.70;;;;;;;;;;5113713;27;20459;-71
2023/03/05 05:31:47;;;;;;;2.33;1.67;;;;;;;;;;5102081;28;20455;-72
2023/03/05 05:34:18;;;;;;;8.13;1.70;;;;;;;;;;5107106;28;20515;-71
2023/03/05 05:36:49;;;;;;;5.30;2.20;;;;;;;;;;5119381;28;20870;-72
2023/03/05 05:39:20;;;;;;;5.13;1.20;;;;;;;;;;5112196;28;20455;-70
2023/03/05 05:41:51;;;;;;;5.00;1.43;;;;;;;;;;5119129;28;20738;-71
2023/03/05 05:44:19;;;;;;;3.43;1.50;;;;;;;;;;5120731;28;20524;-70
2023/03/05 05:46:48;;;;;;;4.73;1.83;;;;;;;;;;5117928;28;20842;-72
2023/03/05 05:49:16;;;;;;;3.20;1.30;;;;;;;;;;5108301;28;20870;-70
2023/03/05 05:51:46;;;;;;;4.50;1.67;;;;;;;;;;5119787;28;20965;-70
2023/03/05 05:54:15;;;;;;;2.57;1.43;;;;;;;;;;5119872;28;20446;-70
2023/03/05 05:57:02;;;;;;;4.70;1.37;;;;;;;;;;5120032;27;20510;-69
2023/03/05 05:59:31;;;;;;;4.90;1.67;;;;;;;;;;5121914;28;20482;-72
2023/03/05 06:02:00;;;;;;;3.90;1.40;;;;;;;;;;5118857;28;20800;-71
2023/03/05 06:04:28;;;;;;;1.90;1.07;;;;;;;;;;5120139;28;20490;-71
2023/03/05 06:07:07;;;;;;;5.00;1.57;;;;;;;;;;5118542;28;20443;-71
2023/03/05 06:09:36;;;;;;;10.70;1.73;;;;;;;;;;5120531;28;20525;-72
2023/03/05 06:12:04;;;;;;;3.90;1.60;;;;;;;;;;5119505;28;20443;-72
2023/03/05 06:14:31;;;;;;;6.17;1.40;;;;;;;;;;5118646;28;20498;-72
2023/03/05 06:17:00;;;;;;;3.23;1.03;;;;;;;;;;5119601;28;20447;-72
2023/03/05 06:19:28;;;;;;;6.37;1.40;;;;;;;;;;5119402;28;20502;-71
2023/03/05 06:21:56;;;;;;;3.43;1.30;;;;;;;;;;5119274;28;20843;-71
2023/03/05 06:24:25;;;;;;;7.87;1.67;;;;;;;;;;5120214;28;20518;-72
2023/03/05 06:26:54;;;;;;;2.43;1.20;;;;;;;;;;5106618;28;20892;-71
2023/03/05 06:29:22;;;;;;;4.67;1.30;;;;;;;;;;5098616;28;20455;-71
2023/03/05 06:31:51;;;;;;;3.40;1.80;;;;;;;;;;5106405;28;20897;-71
2023/03/05 06:34:25;;;;;;;7.47;2.00;;;;;;;;;;5119381;28;20455;-71
2023/03/05 06:36:52;;;;;;;4.20;1.40;;;;;;;;;;5120885;28;20457;-71
2023/03/05 06:39:21;;;;;;;5.70;1.33;;;;;;;;;;5118688;28;20455;-71
2023/03/05 06:41:52;;;;;;;4.80;1.47;;;;;;;;;;5101679;28;20535;-72
2023/03/05 06:44:20;;;;;;;3.97;1.50;;;;;;;;;;5097601;28;20555;-71
2023/03/05 06:46:59;;;;;;;3.50;1.33;;;;;;;;;;5098784;28;20451;-70
2023/03/05 06:49:33;;;;;;;3.33;1.40;;;;;;;;;;5098862;28;20462;-71
2023/03/05 06:52:18;;;;;;;3.53;1.23;;;;;;;;;;5098063;28;20444;-72
2023/03/05 06:54:45;;;;;;;2.30;0.90;;;;;;;;;;5097044;28;20462;-72
2023/03/05 06:57:17;;;;;;;3.80;1.73;;;;;;;;;;5097690;28;20860;-72
2023/03/05 06:59:51;;;;;;;3.47;1.17;;;;;;;;;;5110184;28;20458;-72
2023/03/05 07:02:20;;;;;;;2.90;1.00;;;;;;;;;;5117618;28;20785;-71
2023/03/05 07:04:49;;;;;;;2.07;1.23;;;;;;;;;;5114379;28;20512;-72
2023/03/05 07:07:17;;;;;;;1.90;1.00;;;;;;;;;;5113683;28;20454;-72
2023/03/05 07:09:49;;;;;;;3.73;1.50;;;;;;;;;;5105659;28;20451;-71
2023/03/05 07:12:16;;;;;;;1.60;0.80;;;;;;;;;;5098432;28;20439;-71
2023/03/05 07:14:44;;;;;;;4.77;1.30;;;;;;;;;;5097012;28;20447;-71
2023/03/05 07:17:14;;;;;;;5.10;1.43;;;;;;;;;;5101168;28;20447;-71
2023/03/05 07:19:48;;;;;;;3.80;0.90;;;;;;;;;;5117699;28;20459;-72
2023/03/05 07:22:21;;;;;;;3.33;1.60;;;;;;;;;;5117747;28;21061;-71
2023/03/05 07:24:49;;;;;;;5.30;1.20;;;;;;;;;;5117442;28;20902;-71
2023/03/05 07:27:24;;;;;;;2.17;1.57;;;;;;;;;;5120893;28;20709;-72
2023/03/05 07:29:52;;;;;;;4.40;1.53;;;;;;;;;;5120853;28;20446;-72
2023/03/05 07:32:22;;;;;;;1.70;1.00;;;;;;;;;;5101158;28;20448;-71
2023/03/05 07:34:50;;;;;;;2.90;1.20;;;;;;;;;;5101123;28;20443;-72
2023/03/05 07:37:19;;;;;;;5.00;1.67;;;;;;;;;;5119012;28;20459;-72
2023/03/05 07:39:46;;;;;;;2.80;1.60;;;;;;;;;;5121588;28;20469;-73
2023/03/05 07:42:14;;;;;;;3.70;1.27;;;;;;;;;;5120590;28;20443;-71
2023/03/05 07:44:42;;;;;;;3.67;1.50;;;;;;;;;;5122289;28;20482;-71
2023/03/05 07:49:53;;;;;;;3.17;1.20;;;;;;;;;;5104806;28;20513;-72
2023/03/05 07:52:23;;;;;;;4.27;1.30;;;;;;;;;;5120105;28;20454;-72
2023/03/05 07:54:52;;;;;;;2.50;1.40;;;;;;;;;;5120994;28;20447;-71
2023/03/05 07:57:20;;;;;;;3.77;1.50;;;;;;;;;;5120404;28;20443;-72
2023/03/05 07:59:48;;;;;;;6.37;1.60;;;;;;;;;;5120636;28;20499;-72
2023/03/05 08:02:18;;;;;;;5.33;1.30;;;;;;;;;;5120122;28;20435;-72
2023/03/05 08:04:46;;;;;;;2.73;1.00;;;;;;;;;;5120511;28;20705;-72
2023/03/05 08:07:15;;;;;;;2.53;1.10;;;;;;;;;;5099465;28;20443;-72
2023/03/05 08:09:44;;;;;;;4.80;1.73;;;;;;;;;;5103331;28;20463;-71
2023/03/05 08:12:12;;;;;;;7.93;2.80;;;;;;;;;;5116003;28;20458;-72
2023/03/05 08:14:40;;;;;;;13.90;3.40;;;;;;;;;;5120500;28;20439;-71
2023/03/05 08:17:08;;;;;;;2.97;1.27;;;;;;;;;;5120497;28;20476;-72
2023/03/05 08:19:36;;;;;;;4.53;1.53;;;;;;;;;;5119445;28;20523;-69
2023/03/05 08:22:04;;;;;;;4.10;1.37;;;;;;;;;;5100394;28;20775;-71
2023/03/05 08:24:32;;;;;;;4.30;1.50;;;;;;;;;;5098989;28;20475;-72
2023/03/05 08:27:01;;;;;;;3.53;1.97;;;;;;;;;;5099786;28;20886;-72
2023/03/05 08:29:29;;;;;;;4.90;1.87;;;;;;;;;;5098491;28;20458;-72
2023/03/05 08:31:57;;;;;;;4.10;1.87;;;;;;;;;;5098476;28;20459;-72
2023/03/05 08:37:15;;;;;;;2.60;1.10;;;;;;;;;;5095007;28;20508;-72
2023/03/05 08:39:43;;;;;;;3.50;1.40;;;;;;;;;;5098242;28;20553;-70
2023/03/05 08:42:13;;;;;;;3.63;1.87;;;;;;;;;;5099290;28;20547;-70
2023/03/05 08:44:41;;;;;;;5.90;1.87;;;;;;;;;;5098828;28;20488;-72
2023/03/05 08:47:09;;;;;;;6.70;1.27;;;;;;;;;;5098575;28;20459;-70
2023/03/05 08:49:47;;;;;;;2.20;1.23;;;;;;;;;;5100831;28;20451;-71
2023/03/05 08:52:15;;;;;;;3.70;1.30;;;;;;;;;;5111074;28;20462;-71
2023/03/05 08:54:47;;;;;;;8.70;1.60;;;;;;;;;;5119685;28;20465;-71
2023/03/05 08:57:16;;;;;;;7.07;1.80;;;;;;;;;;5109936;28;20471;-71
2023/03/05 08:59:45;;;;;;;4.70;1.27;;;;;;;;;;5101691;28;20883;-73
2023/03/05 09:02:13;;;;;;;2.90;1.50;;;;;;;;;;5118831;28;20450;-71
2023/03/05 09:04:44;;;;;;;3.17;1.33;;;;;;;;;;5121032;28;20482;-72
2023/03/05 09:07:14;;;;;;;4.70;1.40;;;;;;;;;;5119666;28;20466;-72
2023/03/05 09:09:43;;;;;;;4.40;1.07;;;;;;;;;;5116552;27;20454;-72
2023/03/05 09:12:12;;;;;;;2.63;1.30;;;;;;;;;;5119371;28;20482;-71
2023/03/05 09:14:42;;;;;;;2.03;1.27;;;;;;;;;;5119237;28;20863;-71
2023/03/05 09:17:12;;;;;;;20.53;2.10;;;;;;;;;;5118021;28;20455;-72
2023/03/05 09:19:45;;;;;;;1.63;0.90;;;;;;;;;;5118540;28;20522;-71
2023/03/05 09:22:13;;;;;;;4.13;1.30;;;;;;;;;;5118241;28;20447;-71
2023/03/05 09:24:43;;;;;;;12.40;1.90;;;;;;;;;;5118215;28;20701;-72
2023/03/05 09:27:14;;;;;;;2.40;1.40;;;;;;;;;;5118565;28;20492;-71
2023/03/05 09:35:48;;;;;;;7.63;2.03;;;;;;;;;;5097209;28;20468;-70
2023/03/05 09:38:18;;;;;;;4.07;1.60;;;;;;;;;;5101686;28;20524;-72
2023/03/05 09:41:06;;;;;;;;;;;;;;;;;;;;;
2023/03/05 09:47:18;;;;;;;3.67;2.10;;;;;;;;;;5077851;28;20447;-71
2023/03/05 09:50:08;;;;;;;2.83;1.80;;;;;;;;;;5083122;28;20867;-71
2023/03/05 09:52:42;;;;;;;6.40;2.13;;;;;;;;;;5092823;28;20447;-70
2023/03/05 09:55:18;;;;;;;9.57;2.17;;;;;;;;;;5077722;28;20501;-71
2023/03/05 09:57:57;;;;;;;5.30;1.93;;;;;;;;;;5091366;28;20467;-71
2023/03/05 10:00:29;;;;;;;2.97;1.50;;;;;;;;;;5096187;28;20448;-71
2023/03/05 10:03:13;;;;;;;5.57;2.50;;;;;;;;;;5098656;28;20439;-71
2023/03/05 10:06:03;;;;;;;4.20;1.27;;;;;;;;;;5097444;28;20489;-72
2023/03/05 10:08:43;;;;;;;3.87;0.87;;;;;;;;;;5097941;28;20720;-70
2023/03/05 10:11:20;;;;;;;5.40;1.83;;;;;;;;;;5097700;28;20511;-71
2023/03/05 10:13:57;;;;;;;1.77;1.00;;;;;;;;;;5096519;28;20743;-70
2023/03/05 10:16:39;;;;;;;2.57;1.50;;;;;;;;;;5097878;28;20977;-70
2023/03/05 10:19:11;;;;;;;3.90;1.23;;;;;;;;;;5096456;28;20466;-71
2023/03/05 10:21:50;;;;;;;4.13;1.20;;;;;;;;;;5097882;28;20538;-70
2023/03/05 10:24:30;;;;;;;3.93;1.30;;;;;;;;;;5097453;28;20466;-70
2023/03/05 10:27:02;;;;;;;4.67;1.10;;;;;;;;;;5097365;28;20498;-70
2023/03/05 10:29:48;;;;;;;4.30;1.63;;;;;;;;;;5096520;28;20498;-71
2023/03/05 10:32:25;;;;;;;3.10;0.90;;;;;;;;;;5097223;28;20451;-71
2023/03/05 10:35:09;;;;;;;2.70;0.70;;;;;;;;;;5097284;28;20572;-71
2023/03/05 10:37:52;;;;;;;3.43;0.67;;;;;;;;;;5097495;28;20460;-71
2023/03/05 10:40:31;;;;;;;3.20;1.00;;;;;;;;;;5083625;28;20462;-71
2023/03/05 10:43:02;;;;;;;3.60;0.80;;;;;;;;;;5098418;28;20482;-72
2023/03/05 10:45:31;;;;;;;3.80;1.43;;;;;;;;;;5096520;28;20509;-72
2023/03/05 10:48:04;;;;;;;3.47;0.87;;;;;;;;;;5097359;28;20870;-72
2023/03/05 10:50:36;;;;;;;6.50;1.50;;;;;;;;;;5095799;28;21125;-71
2023/03/05 10:53:09;;;;;;;2.00;0.70;;;;;;;;;;5095677;28;20847;-72
2023/03/05 10:55:40;;;;;;;6.20;0.90;;;;;;;;;;5088922;28;20902;-72
2023/03/05 10:58:12;;;;;;;2.00;0.60;;;;;;;;;;5096260;28;20452;-72
2023/03/05 11:00:40;;;;;;;4.47;0.90;;;;;;;;;;5093576;28;20452;-70
2023/03/05 11:03:11;;;;;;;2.50;0.97;;;;;;;;;;5081332;28;20500;-72
2023/03/05 11:05:44;;;;;;;7.17;0.97;;;;;;;;;;5089974;28;20483;-71
2023/03/05 11:08:42;;;;;;;1.60;0.60;;;;;;;;;;5086608;28;20543;-71
2023/03/05 11:11:15;;;;;;;2.60;1.37;;;;;;;;;;5027020;28;20489;-70
2023/03/05 11:13:46;;;;;;;5.80;0.97;;;;;;;;;;5056933;28;20882;-71
2023/03/05 11:16:25;;;;;;;1.67;0.80;;;;;;;;;;5074051;28;20447;-70
2023/03/05 11:19:21;;;;;;;2.90;0.70;;;;;;;;;;5074188;28;20442;-71
2023/03/05 11:22:07;;;;;;;4.73;1.27;;;;;;;;;;5077287;28;20443;-70
2023/03/05 11:24:37;;;;;;;1.67;0.57;;;;;;;;;;5083990;28;20460;-70
2023/03/05 11:27:21;;;;;;;3.23;0.80;;;;;;;;;;5089878;28;20471;-70
2023/03/05 11:29:56;;;;;;;1.83;0.60;;;;;;;;;;5081310;28;20488;-71
2023/03/05 11:32:30;;;;;;;4.70;1.37;;;;;;;;;;5073342;28;20471;-71
2023/03/05 11:35:00;;;;;;;8.13;1.87;;;;;;;;;;5090331;28;20723;-71
2023/03/05 11:37:29;;;;;;;5.90;2.10;;;;;;;;;;5084363;28;20466;-70
2023/03/05 11:40:18;;;;;;;3.87;1.53;;;;;;;;;;5075809;28;20453;-71
2023/03/05 11:42:48;;;;;;;1.90;1.00;;;;;;;;;;5075217;28;20559;-70
2023/03/05 11:45:20;;;;;;;3.00;1.50;;;;;;;;;;5079149;28;20476;-71
2023/03/05 11:47:49;;;;;;;5.80;1.30;;;;;;;;;;5086307;28;20460;-71
2023/03/05 11:50:29;;;;;;;3.50;1.80;;;;;;;;;;5083877;28;20451;-72
2023/03/05 11:53:00;;;;;;;1.80;1.10;;;;;;;;;;5088456;28;20495;-71
2023/03/05 11:55:32;;;;;;;2.97;1.60;;;;;;;;;;5076098;28;20869;-71
2023/03/05 11:58:21;;;;;;;1.70;0.90;;;;;;;;;;5091723;28;20463;-70
2023/03/05 12:00:52;;;;;;;4.43;1.33;;;;;;;;;;5081265;28;20451;-70
2023/03/05 12:03:21;;;;;;;2.13;1.20;;;;;;;;;;5081100;28;20560;-71
2023/03/05 12:08:48;;;;;;;4.60;1.20;;;;;;;;;;5091342;28;20547;-70
2023/03/05 12:11:24;;;;;;;2.13;1.07;;;;;;;;;;5089933;28;20545;-71
2023/03/05 12:14:07;;;;;;;3.77;1.10;;;;;;;;;;5084824;28;20524;-72
2023/03/05 12:16:45;;;;;;;2.33;1.13;;;;;;;;;;5083639;28;20452;-71
2023/03/05 12:19:40;;;;;;;2.03;1.00;;;;;;;;;;5085431;28;20455;-70
2023/03/05 12:22:17;;;;;;;2.13;1.07;;;;;;;;;;5081419;28;20561;-71
2023/03/05 12:24:57;;;;;;;2.23;1.00;;;;;;;;;;5078800;28;20458;-71
2023/03/05 12:27:47;;;;;;;3.20;1.10;;;;;;;;;;5087209;28;20478;-70
2023/03/05 12:30:35;;;;;;;3.33;1.30;;;;;;;;;;5098917;28;20447;-72
2023/03/05 12:33:07;;;;;;;2.80;1.37;;;;;;;;;;5096224;28;20547;-70
2023/03/05 12:38:31;;;;;;;2.43;1.13;;;;;;;;;;5093577;28;20460;-71
2023/03/05 12:41:18;;;;;;;2.70;1.60;;;;;;;;;;5097514;28;20460;-70
2023/03/05 12:43:48;;;;;;;5.17;2.00;;;;;;;;;;5098404;28;20907;-71
2023/03/05 12:46:28;;;;;;;2.47;1.20;;;;;;;;;;5096403;28;20486;-71
2023/03/05 12:49:27;;;;;;;4.53;1.80;;;;;;;;;;5095604;28;20459;-70
2023/03/05 12:51:55;;;;;;;2.30;1.00;;;;;;;;;;5097161;28;20448;-70
2023/03/05 12:54:29;;;;;;;5.27;1.53;;;;;;;;;;5092396;28;20927;-70
2023/03/05 12:56:58;;;;;;;4.43;1.70;;;;;;;;;;5096958;28;20509;-72
2023/03/05 12:59:33;;;;;;;2.30;1.03;;;;;;;;;;5099196;28;20867;-72
2023/03/05 13:02:09;;;;;;;2.77;1.70;;;;;;;;;;5098030;28;20541;-72
2023/03/05 13:04:48;;;;;;;5.23;0.80;;;;;;;;;;5095919;28;20467;-72
2023/03/05 13:07:17;;;;;;;2.23;0.83;;;;;;;;;;5079489;28;20495;-72
2023/03/05 13:09:56;;;;;;;2.60;0.80;;;;;;;;;;5097450;28;20448;-72
2023/03/05 13:12:26;;;;;;;3.20;0.90;;;;;;;;;;5090449;28;20486;-72
2023/03/05 13:15:00;;;;;;;3.97;1.13;;;;;;;;;;5094256;28;20545;-72
2023/03/05 13:17:47;;;;;;;2.00;1.00;;;;;;;;;;5098674;28;20733;-72
2023/03/05 13:20:32;;;;;;;1.30;0.57;;;;;;;;;;5086296;28;20558;-71
2023/03/05 13:23:16;;;;;;;3.17;0.70;;;;;;;;;;5096718;28;20917;-71
2023/03/05 13:26:02;;;;;;;2.60;0.60;;;;;;;;;;5090633;28;20483;-73
2023/03/05 13:28:36;;;;;;;2.87;0.70;;;;;;;;;;5089490;28;20925;-72
2023/03/05 13:31:13;;;;;;;1.27;0.57;;;;;;;;;;5087590;28;20470;-71
2023/03/05 13:34:13;;;;;;;1.97;1.10;;;;;;;;;;5096860;28;20540;-72
2023/03/05 13:36:59;;;;;;;2.47;0.80;;;;;;;;;;5079025;28;20821;-75
2023/03/05 13:39:31;;;;;;;1.50;0.70;;;;;;;;;;5087702;28;21834;-72
2023/03/05 13:42:06;;;;;;;2.10;0.70;;;;;;;;;;5097301;28;20986;-71
2023/03/05 13:44:46;;;;;;;4.53;0.90;;;;;;;;;;5094825;28;20510;-71
2023/03/05 13:47:20;;;;;;;2.03;0.80;;;;;;;;;;5096683;28;20570;-72
2023/03/05 13:49:48;;;;;;;1.40;0.50;;;;;;;;;;5098546;28;20476;-72
2023/03/05 13:52:26;;;;;;;2.77;0.90;;;;;;;;;;5097400;28;20461;-71
2023/03/05 13:55:16;;;;;;;2.73;0.90;;;;;;;;;;5095631;28;20439;-72
2023/03/05 13:57:45;;;;;;;5.90;1.27;;;;;;;;;;5097075;28;21149;-71
2023/03/05 14:00:35;;;;;;;2.57;1.07;;;;;;;;;;5096623;28;20466;-71
2023/03/05 14:03:11;;;;;;;6.07;1.93;;;;;;;;;;5096814;28;20477;-70
2023/03/05 14:05:51;;;;;;;3.33;1.30;;;;;;;;;;5097851;28;20826;-71
2023/03/05 14:08:28;;;;;;;4.53;1.37;;;;;;;;;;5094559;28;20443;-71
2023/03/05 14:11:07;;;;;;;;;;;;;;;;;;;;;
2023/03/05 14:13:41;;;;;;;7.27;1.37;;;;;;;;;;5095783;28;20468;-70
2023/03/05 14:16:26;;;;;;;5.83;1.13;;;;;;;;;;5088505;28;20464;-72
2023/03/05 14:18:59;;;;;;;2.50;0.70;;;;;;;;;;5076123;28;20863;-71
2023/03/05 14:21:45;;;;;;;4.27;1.30;;;;;;;;;;5063625;28;20452;-71
2023/03/05 14:24:30;;;;;;;3.27;0.97;;;;;;;;;;5073430;28;20437;-71
2023/03/05 14:27:12;;;;;;;6.27;2.87;;;;;;;;;;5065841;28;21105;-71
2023/03/05 14:29:47;;;;;;;3.00;0.60;;;;;;;;;;5075463;28;20836;-71
2023/03/05 14:32:24;;;;;;;2.70;0.70;;;;;;;;;;5075498;28;20516;-71
2023/03/05 14:34:56;;;;;;;2.03;0.63;;;;;;;;;;5073946;28;20933;-71
2023/03/05 14:37:27;;;;;;;2.23;0.60;;;;;;;;;;5074931;28;20471;-71
2023/03/05 14:39:59;;;;;;;1.70;1.00;;;;;;;;;;5060638;28;20441;-72
2023/03/05 14:42:29;;;;;;;1.77;0.70;;;;;;;;;;5064299;28;20456;-71
2023/03/05 14:45:01;;;;;;;1.63;0.73;;;;;;;;;;5080757;28;20477;-70
2023/03/05 14:47:37;;;;;;;1.70;0.80;;;;;;;;;;5086850;28;20915;-71
2023/03/05 14:50:06;;;;;;;1.87;0.70;;;;;;;;;;5075028;28;20472;-71
2023/03/05 14:52:43;;;;;;;1.40;0.50;;;;;;;;;;5074596;28;20449;-71
2023/03/05 14:55:17;;;;;;;2.13;0.60;;;;;;;;;;5080727;28;20801;-71
2023/03/05 14:57:50;;;;;;;2.67;0.70;;;;;;;;;;5081592;28;20443;-72
2023/03/05 15:00:19;;;;;;;3.33;0.80;;;;;;;;;;5095062;28;20467;-72
2023/03/05 15:02:50;;;;;;;2.57;0.83;;;;;;;;;;5096883;28;20471;-70
2023/03/05 15:05:18;;;;;;;3.30;0.70;;;;;;;;;;5095705;28;20482;-71
2023/03/05 15:07:47;;;;;;;2.27;1.10;;;;;;;;;;5095625;28;20860;-71
2023/03/05 15:10:20;;;;;;;1.30;0.50;;;;;;;;;;5079146;28;20618;-72
2023/03/05 15:12:49;;;;;;;2.53;0.80;;;;;;;;;;5075278;28;20452;-70
2023/03/05 15:15:30;;;;;;;2.90;0.73;;;;;;;;;;5093377;28;20459;-70
2023/03/05 15:18:06;;;;;;;1.50;0.60;;;;;;;;;;5096039;28;20440;-71
2023/03/05 15:20:39;;;;;;;3.57;0.70;;;;;;;;;;5074427;28;20456;-70
2023/03/05 15:23:07;;;;;;;6.20;0.90;;;;;;;;;;5093514;28;20658;-70
2023/03/05 15:25:37;;;;;;;2.60;0.90;;;;;;;;;;5092882;28;20455;-70
2023/03/05 15:28:17;;;;;;;2.67;0.70;;;;;;;;;;5094820;28;20491;-72
2023/03/05 15:30:51;;;;;;;2.43;1.00;;;;;;;;;;5075166;28;20816;-70
2023/03/05 15:33:18;;;;;;;3.60;0.97;;;;;;;;;;5094907;28;20803;-70